Time;durP1;ratioP1;P1;durP2;ratioP2;P2;SDS_P1;SDS_P2;PMS_P1;PMS_P2;Temp;Humidity;BMP_temperature;BMP_pressure;BME280_temperature;BME280_humidity;BME280_pressure;Samples;Min_cycle;Max_cycle;Signal;HPM_P1;HPM_P2
2021/12/05 00:18:58;;;;;;;8.60;3.20;;;;;;;5.52;100.00;99699.97;4932094;29;20043;-49
2021/12/05 00:24:42;;;;;;;12.57;3.83;;;;;;;5.48;98.74;99712.41;4951648;28;20050;-47
2021/12/05 00:27:43;;;;;;;12.48;3.95;;;;;;;5.52;99.57;99716.19;4953317;29;20050;-46
2021/12/05 00:52:17;;;;;;;10.82;3.70;;;;;;;5.44;98.22;99715.88;4916179;29;20503;-49
2021/12/05 01:10:27;;;;;;;9.93;3.20;;;;;;;5.42;100.00;99718.84;4915399;29;20052;-50
2021/12/05 01:16:15;;;;;;;12.27;3.90;;;;;;;5.41;100.00;99717.22;4903701;29;20341;-46
2021/12/05 01:19:04;;;;;;;11.15;4.03;;;;;;;5.36;98.25;99719.88;4926030;29;20059;-46
2021/12/05 01:22:00;;;;;;;11.75;4.40;;;;;;;5.37;98.48;99713.41;4983270;28;20043;-48
2021/12/05 01:28:38;;;;;;;12.40;3.90;;;;;;;5.51;100.00;99714.56;4915768;29;20092;-49
2021/12/05 01:58:46;;;;;;;10.18;4.00;;;;;;;5.11;97.07;99721.34;4923798;29;20087;-48
2021/12/05 02:35:39;;;;;;;14.93;4.88;;;;;;;5.16;99.60;99698.16;4924392;29;20138;-48
2021/12/05 02:41:38;;;;;;;12.57;3.90;;;;;;;5.13;100.00;99700.28;4947678;29;20069;-47
2021/12/05 02:44:26;;;;;;;13.00;4.18;;;;;;;5.09;100.00;99701.88;4954671;29;20065;-47
2021/12/05 02:47:17;;;;;;;13.35;4.57;;;;;;;5.03;99.37;99697.53;4952555;28;20086;-48
2021/12/05 02:50:08;;;;;;;8.52;3.70;;;;;;;5.03;100.00;99702.13;4954462;29;20131;-49
2021/12/05 02:53:02;;;;;;;12.48;3.50;;;;;;;5.02;100.00;99695.88;4953962;29;20126;-46
2021/12/05 02:55:51;;;;;;;9.57;3.58;;;;;;;5.01;100.00;99698.84;4963820;28;20055;-46
2021/12/05 02:58:51;;;;;;;11.05;4.18;;;;;;;4.97;99.73;99692.34;4953301;29;20497;-50
2021/12/05 03:01:43;;;;;;;11.88;3.78;;;;;;;4.96;98.81;99702.34;4939017;29;20058;-48
2021/12/05 03:04:33;;;;;;;9.68;3.70;;;;;;;4.98;100.00;99700.19;4955032;28;20122;-48
2021/12/05 03:07:26;;;;;;;7.32;3.10;;;;;;;5.00;99.99;99705.31;4950132;29;20062;-50
2021/12/05 03:10:18;;;;;;;12.13;3.75;;;;;;;4.95;98.14;99698.00;4954113;29;20098;-47
2021/12/05 03:13:06;;;;;;;10.25;3.60;;;;;;;4.95;98.16;99702.56;4954469;28;20058;-47
2021/12/05 03:15:56;;;;;;;8.30;3.38;;;;;;;4.94;98.23;99704.47;4953958;28;20043;-49
2021/12/05 03:18:44;;;;;;;9.77;3.40;;;;;;;4.92;98.11;99709.31;4951035;29;20067;-49
2021/12/05 03:21:33;;;;;;;9.45;3.60;;;;;;;4.95;96.56;99711.47;4952872;28;20071;-48
2021/12/05 03:24:24;;;;;;;11.73;4.20;;;;;;;4.94;96.21;99709.88;4954097;28;20086;-47
2021/12/05 03:27:14;;;;;;;11.00;3.90;;;;;;;4.91;96.30;99710.41;4951945;28;20072;-48
2021/12/05 03:30:03;;;;;;;9.52;3.47;;;;;;;4.96;97.37;99710.44;4953624;29;20090;-47
2021/12/05 03:32:50;;;;;;;9.35;3.58;;;;;;;4.96;96.43;99718.53;4939083;29;20047;-49
2021/12/05 03:35:39;;;;;;;12.57;3.67;;;;;;;4.96;96.41;99707.72;4952984;29;20090;-49
2021/12/05 03:38:27;;;;;;;12.13;4.00;;;;;;;4.94;95.96;99706.38;4963324;28;20063;-47
2021/12/05 03:41:16;;;;;;;10.48;3.40;;;;;;;4.95;96.68;99699.88;4952572;29;20138;-46
2021/12/05 03:44:08;;;;;;;10.70;3.47;;;;;;;4.95;95.62;99697.19;4952612;29;20036;-46
2021/12/05 03:46:56;;;;;;;11.23;3.78;;;;;;;4.92;94.43;99703.91;4953645;28;20058;-48
2021/12/05 03:49:44;;;;;;;8.65;3.17;;;;;;;4.94;95.92;99693.66;4962786;28;20044;-48
2021/12/05 03:52:33;;;;;;;11.20;3.65;;;;;;;4.95;95.46;99697.19;4950267;29;20058;-49
2021/12/05 03:55:21;;;;;;;9.68;3.63;;;;;;;4.93;95.03;99697.47;4953511;28;20051;-48
2021/12/05 03:58:09;;;;;;;10.63;3.75;;;;;;;4.93;95.50;99697.47;4954622;28;20051;-48
2021/12/05 04:00:59;;;;;;;8.20;3.25;;;;;;;4.94;95.31;99696.38;4939464;29;20043;-48
2021/12/05 04:03:48;;;;;;;10.63;3.60;;;;;;;5.01;97.39;99696.97;4952412;29;20047;-50
2021/12/05 04:06:36;;;;;;;7.55;3.05;;;;;;;5.02;96.51;99700.47;4950323;29;20051;-48
2021/12/05 04:09:24;;;;;;;7.95;3.05;;;;;;;5.07;97.71;99693.22;4954306;28;20054;-49
2021/12/05 04:12:15;;;;;;;11.98;3.60;;;;;;;5.24;100.00;99692.25;4951902;29;20130;-49
2021/12/05 04:15:04;;;;;;;7.55;2.97;;;;;;;5.19;100.00;99689.53;4952469;29;20054;-44
2021/12/05 04:17:53;;;;;;;8.13;3.00;;;;;;;5.16;99.61;99695.44;4952791;29;20047;-48
2021/12/05 04:20:40;;;;;;;7.78;2.92;;;;;;;5.19;100.00;99695.72;4980385;28;20055;-48
2021/12/05 04:23:29;;;;;;;9.00;2.90;;;;;;;5.26;100.00;99701.72;4953874;28;20494;-49
2021/12/05 04:26:18;;;;;;;7.20;2.90;;;;;;;5.29;100.00;99685.00;4957930;28;20051;-51
2021/12/05 04:29:09;;;;;;;8.55;3.05;;;;;;;5.24;100.00;99687.69;4958755;29;20051;-49
2021/12/05 04:31:56;;;;;;;6.93;2.70;;;;;;;5.33;100.00;99688.00;4971044;28;20114;-51
2021/12/05 04:34:44;;;;;;;7.80;3.25;;;;;;;5.37;100.00;99686.41;4985424;28;20047;-49
2021/12/05 04:37:32;;;;;;;8.57;2.65;;;;;;;5.55;100.00;99688.63;4959709;28;20517;-53
2021/12/05 04:40:20;;;;;;;6.55;2.45;;;;;;;5.51;100.00;99684.84;4956464;28;20039;-48
2021/12/05 04:43:09;;;;;;;8.40;2.60;;;;;;;5.49;100.00;99681.59;4943475;29;20047;-48
2021/12/05 04:45:58;;;;;;;6.47;2.75;;;;;;;5.47;100.00;99688.34;4958808;28;20098;-48
2021/12/05 04:48:48;;;;;;;5.50;2.60;;;;;;;5.30;100.00;99692.03;4959429;28;20050;-48
2021/12/05 04:51:40;;;;;;;7.35;2.90;;;;;;;5.26;100.00;99692.81;4959526;28;20047;-49
2021/12/05 04:54:29;;;;;;;7.25;2.53;;;;;;;5.26;100.00;99687.41;4945637;29;20489;-48
2021/12/05 04:57:16;;;;;;;5.57;2.55;;;;;;;5.31;100.00;99692.84;4955933;29;20067;-48
2021/12/05 05:00:36;;;;;;;6.60;2.58;;;;;;;5.30;100.00;99688.50;4958441;28;20055;-48
2021/12/05 05:03:26;;;;;;;6.70;2.70;;;;;;;5.31;100.00;99687.44;4956899;28;20058;-47
2021/12/05 05:06:15;;;;;;;6.38;2.30;;;;;;;5.25;100.00;99688.50;4959593;28;20082;-48
2021/12/05 05:09:03;;;;;;;8.70;3.08;;;;;;;5.23;100.00;99690.63;4959379;28;20102;-48
2021/12/05 05:11:51;;;;;;;8.85;2.88;;;;;;;5.26;100.00;99696.31;4957835;29;20047;-49
2021/12/05 05:14:39;;;;;;;8.40;3.13;;;;;;;5.29;100.00;99686.88;4976112;28;20054;-47
2021/12/05 05:17:27;;;;;;;5.30;2.33;;;;;;;5.26;100.00;99695.50;4963060;28;20079;-48
2021/12/05 05:20:15;;;;;;;8.70;2.67;;;;;;;5.23;100.00;99701.44;4958194;28;20051;-48
2021/12/05 05:50:04;;;;;;;6.53;2.55;;;;;;;5.26;100.00;99727.91;4961552;28;20422;-50
2021/12/05 05:52:52;;;;;;;5.75;2.70;;;;;;;5.23;100.00;99736.53;4955938;28;20043;-46
2021/12/05 05:55:40;;;;;;;6.20;2.28;;;;;;;5.23;100.00;99734.66;4955705;28;20078;-48
2021/12/05 05:58:39;;;;;;;5.30;2.67;;;;;;;5.16;98.92;99734.06;4956011;28;20062;-47
2021/12/05 06:01:56;;;;;;;6.35;2.50;;;;;;;5.18;100.00;99731.91;4955727;29;20070;-50
2021/12/05 06:04:40;;;;;;;5.57;2.25;;;;;;;5.19;100.00;99732.72;4950769;28;20052;-49
2021/12/05 06:07:29;;;;;;;6.95;2.60;;;;;;;5.21;99.99;99741.38;4959077;28;20066;-50
2021/12/05 06:10:19;;;;;;;4.75;2.10;;;;;;;5.25;100.00;99737.09;4955734;29;20094;-46
2021/12/05 06:13:07;;;;;;;5.40;2.30;;;;;;;5.19;100.00;99736.22;4944719;29;20082;-49
2021/12/05 06:15:54;;;;;;;5.38;2.47;;;;;;;5.12;98.08;99744.56;4968754;28;20462;-52
2021/12/05 06:18:43;;;;;;;5.80;2.30;;;;;;;5.10;97.52;99745.91;4955540;29;20465;-53
2021/12/05 06:21:30;;;;;;;3.72;2.15;;;;;;;5.03;96.16;99750.72;4955591;28;20054;-53
2021/12/05 06:24:18;;;;;;;3.05;1.67;;;;;;;5.11;99.93;99751.03;4954999;29;20114;-52
2021/12/05 06:27:06;;;;;;;4.22;2.03;;;;;;;5.13;98.74;99759.69;4966982;28;20102;-49
2021/12/05 06:30:04;;;;;;;4.32;1.85;;;;;;;6.32;100.00;99755.75;4954892;29;20113;-52
2021/12/05 06:42:20;;;;;;;4.45;1.80;;;;;;;5.69;100.00;99777.34;4954344;28;20070;-48
2021/12/05 06:48:14;;;;;;;2.00;1.50;;;;;;;5.50;100.00;99791.28;4957963;28;20058;-47
2021/12/05 06:51:04;;;;;;;4.82;2.13;;;;;;;5.64;100.00;99793.53;4958391;28;20039;-50
2021/12/05 06:53:52;;;;;;;4.55;1.88;;;;;;;5.49;100.00;99797.78;4959219;28;20078;-50
2021/12/05 06:56:39;;;;;;;3.67;1.98;;;;;;;5.48;100.00;99801.56;4958323;28;20498;-48
2021/12/05 06:59:19;;;;;;;2.92;1.58;;;;;;;5.40;100.00;99803.91;4953240;29;20058;-48
2021/12/05 07:02:08;;;;;;;3.13;1.75;;;;;;;5.38;100.00;99811.47;4954301;29;20090;-48
2021/12/05 07:05:18;;;;;;;5.05;1.88;;;;;;;5.27;100.00;99815.97;4956965;28;20047;-46
2021/12/05 07:08:07;;;;;;;4.07;1.95;;;;;;;5.25;100.00;99818.13;4946905;28;20059;-49
2021/12/05 07:16:49;;;;;;;3.78;2.00;;;;;;;5.31;100.00;99827.88;4943981;29;20139;-51
2021/12/05 07:19:33;;;;;;;2.13;1.60;;;;;;;5.21;99.89;99827.78;4954569;28;20051;-50
2021/12/05 07:22:27;;;;;;;4.13;1.90;;;;;;;5.32;100.00;99834.91;4954209;28;20055;-48
2021/12/05 07:25:28;;;;;;;3.78;1.70;;;;;;;5.21;100.00;99835.91;4940650;28;21009;-49
2021/12/05 07:40:42;;;;;;;3.50;2.00;;;;;;;5.42;100.00;99835.00;4941662;29;20051;-47
2021/12/05 07:43:29;;;;;;;3.53;2.15;;;;;;;5.44;100.00;99853.66;4953682;28;20054;-48
2021/12/05 07:46:17;;;;;;;3.33;1.88;;;;;;;5.41;100.00;99855.00;4945677;29;20059;-49
2021/12/05 07:49:09;;;;;;;4.30;1.80;;;;;;;5.58;100.00;99867.53;4956109;28;20055;-51
2021/12/05 07:51:57;;;;;;;5.88;2.20;;;;;;;5.45;100.00;99861.50;4957351;28;20059;-47
2021/12/05 07:54:49;;;;;;;4.60;2.15;;;;;;;5.34;100.00;99862.50;4951277;28;20142;-46
2021/12/05 08:00:56;;;;;;;4.47;1.83;;;;;;;5.39;100.00;99867.94;4956985;28;20110;-47
2021/12/05 08:16:13;;;;;;;2.30;1.73;;;;;;;5.37;100.00;99870.06;4953310;28;20509;-50
2021/12/05 08:19:04;;;;;;;4.30;2.20;;;;;;;5.28;100.00;99877.00;4952459;29;20061;-46
2021/12/05 08:21:55;;;;;;;3.38;1.98;;;;;;;5.25;100.00;99882.94;4952708;28;20524;-49
2021/12/05 08:24:46;;;;;;;4.30;1.70;;;;;;;5.22;100.00;99883.41;4952699;28;20050;-49
2021/12/05 08:27:34;;;;;;;4.15;2.20;;;;;;;5.16;100.00;99887.16;4947097;29;20110;-50
2021/12/05 08:30:29;;;;;;;3.42;1.98;;;;;;;5.13;100.00;99886.59;4946651;28;20047;-49
2021/12/05 08:33:40;;;;;;;5.35;2.00;;;;;;;5.11;100.00;99887.91;4945692;28;20620;-51
2021/12/05 09:08:42;;;;;;;15.30;4.65;;;;;;;5.03;98.11;99915.38;4950306;28;20055;-49
2021/12/05 10:11:37;;;;;;;8.00;2.97;;;;;;;5.51;100.00;100033.38;4955390;28;20477;-48
2021/12/05 10:26:18;;;;;;;6.63;2.92;;;;;;;5.54;100.00;100048.28;4955241;29;20047;-52
2021/12/05 10:27:16;;;;;;;5.40;2.60;;;;;;;5.47;100.00;100043.06;4954904;28;20055;-49
2021/12/05 10:39:10;;;;;;;7.43;2.78;;;;;;;5.47;100.00;100053.88;4955397;28;20043;-49
2021/12/05 10:42:11;;;;;;;8.68;2.97;;;;;;;5.58;100.00;100064.78;4955858;28;20051;-48
2021/12/05 10:44:59;;;;;;;7.15;2.80;;;;;;;5.61;100.00;100059.69;4954289;29;20050;-50
2021/12/05 10:47:53;;;;;;;8.43;3.58;;;;;;;5.69;100.00;100056.53;4958598;28;20051;-49
2021/12/05 10:50:50;;;;;;;8.63;3.42;;;;;;;5.81;100.00;100063.69;4956079;28;20442;-45
2021/12/05 10:53:43;;;;;;;7.38;2.67;;;;;;;5.73;100.00;100062.25;4954780;28;20043;-48
2021/12/05 10:56:36;;;;;;;6.70;2.70;;;;;;;5.65;100.00;100060.84;4954358;29;20435;-50
2021/12/05 10:59:38;;;;;;;7.93;3.20;;;;;;;5.68;100.00;100057.63;4954235;29;20059;-49
2021/12/05 11:02:30;;;;;;;7.43;3.00;;;;;;;5.63;100.00;100067.53;4953336;28;20055;-51
2021/12/05 11:05:34;;;;;;;7.75;2.63;;;;;;;5.70;100.00;100063.59;4954679;28;20061;-50
2021/12/05 11:08:31;;;;;;;7.25;2.90;;;;;;;5.91;100.00;100063.78;4959209;28;20058;-50
2021/12/05 11:11:19;;;;;;;5.35;2.55;;;;;;;5.86;100.00;100069.94;4957791;28;20051;-48
2021/12/05 11:14:31;;;;;;;7.57;3.10;;;;;;;6.06;100.00;100080.19;4957244;28;20426;-47
2021/12/05 11:17:23;;;;;;;4.55;2.40;;;;;;;5.92;100.00;100077.03;4953932;28;20070;-48
2021/12/05 11:20:28;;;;;;;7.20;3.00;;;;;;;5.89;100.00;100082.97;4955670;28;20516;-47
2021/12/05 11:23:19;;;;;;;7.25;2.80;;;;;;;5.87;100.00;100085.13;4954039;28;20043;-48
2021/12/05 11:26:17;;;;;;;6.80;2.97;;;;;;;5.91;100.00;100102.44;4939673;29;20139;-49
2021/12/05 11:29:06;;;;;;;6.20;3.60;;;;;;;5.76;100.00;100094.19;4954029;29;20130;-48
2021/12/05 11:32:07;;;;;;;5.32;2.70;;;;;;;5.69;100.00;100093.56;4954935;28;20402;-49
2021/12/05 11:34:54;;;;;;;6.45;2.60;;;;;;;5.76;100.00;100094.19;4953773;28;20058;-48
2021/12/05 11:37:57;;;;;;;8.48;3.10;;;;;;;5.78;100.00;100097.44;4953219;28;20051;-50
2021/12/05 11:40:43;;;;;;;5.82;3.17;;;;;;;5.71;100.00;100096.81;4954399;28;20051;-49
2021/12/05 11:43:32;;;;;;;6.60;2.83;;;;;;;5.73;100.00;100108.22;4957189;29;20060;-47
2021/12/05 11:46:32;;;;;;;5.75;2.70;;;;;;;5.73;100.00;100105.50;4956090;28;20524;-47
2021/12/05 11:49:22;;;;;;;4.10;2.80;;;;;;;5.66;100.00;100110.28;4946622;29;20079;-52
2021/12/05 11:52:10;;;;;;;4.43;2.80;;;;;;;5.51;98.71;100106.34;4953741;28;20055;-53
2021/12/05 11:54:58;;;;;;;5.58;2.60;;;;;;;5.43;98.31;100116.75;4615389;28;10000856;-52
2021/12/05 11:57:45;;;;;;;6.55;2.85;;;;;;;5.40;98.22;100122.66;4598695;29;10001309;-50
2021/12/05 12:00:33;;;;;;;3.55;2.40;;;;;;;5.39;98.74;100129.97;4951803;28;20051;-48
2021/12/05 12:03:32;;;;;;;4.57;2.53;;;;;;;5.47;99.17;100118.72;4958450;28;20059;-49
2021/12/05 12:06:20;;;;;;;4.03;2.20;;;;;;;5.55;100.00;100120.94;4955391;28;20130;-50
2021/12/05 12:09:08;;;;;;;3.70;2.30;;;;;;;5.52;98.42;100126.88;4950472;29;20055;-48
2021/12/05 12:11:55;;;;;;;3.58;2.30;;;;;;;5.53;98.57;100125.81;4951612;28;20054;-50
2021/12/05 12:14:44;;;;;;;2.30;2.10;;;;;;;5.50;97.92;100134.41;4950800;29;20067;-51
2021/12/05 12:17:31;;;;;;;3.78;2.20;;;;;;;5.52;97.65;100142.28;4951250;29;20051;-51
2021/12/05 12:20:22;;;;;;;2.38;2.00;;;;;;;5.54;97.63;100130.16;4950987;28;20051;-50
2021/12/05 12:23:10;;;;;;;3.65;2.25;;;;;;;5.53;97.36;100133.94;4937031;28;20043;-50
2021/12/05 12:26:00;;;;;;;4.50;2.25;;;;;;;5.55;97.40;100134.47;4945456;29;20047;-46
2021/12/05 12:28:48;;;;;;;4.15;2.08;;;;;;;5.55;98.09;100136.34;4950519;28;20051;-53
2021/12/05 12:31:38;;;;;;;3.97;2.15;;;;;;;5.54;97.03;100140.94;4949879;29;20498;-49
2021/12/05 12:34:27;;;;;;;3.53;2.35;;;;;;;5.52;96.59;100137.69;4952094;28;20055;-45
2021/12/05 12:37:15;;;;;;;3.05;2.00;;;;;;;5.51;96.05;100144.16;4950884;29;20165;-47
2021/12/05 12:40:03;;;;;;;3.70;2.30;;;;;;;5.50;95.67;100152.50;4949963;28;20055;-49
2021/12/05 12:43:15;;;;;;;3.22;2.40;;;;;;;5.49;96.02;100151.69;4951215;28;20047;-50
2021/12/05 12:46:25;;;;;;;3.00;2.30;;;;;;;5.51;96.14;100157.66;4951914;28;20039;-52
2021/12/05 12:49:16;;;;;;;4.75;1.80;;;;;;;5.52;95.59;100162.00;4943734;29;20055;-53
2021/12/05 12:52:07;;;;;;;3.83;2.00;;;;;;;5.51;95.63;100159.56;4954629;28;20093;-48
2021/12/05 12:54:57;;;;;;;2.63;2.10;;;;;;;5.43;95.51;100166.19;4956531;28;20062;-53
2021/12/05 12:57:44;;;;;;;2.15;1.80;;;;;;;5.38;95.88;100166.13;4954471;29;20043;-51
2021/12/05 13:00:35;;;;;;;4.25;2.22;;;;;;;5.38;96.43;100168.84;4954399;29;20502;-51
2021/12/05 13:03:49;;;;;;;2.38;2.00;;;;;;;5.36;97.13;100172.84;4956873;28;20441;-50
2021/12/05 13:10:09;;;;;;;3.65;2.30;;;;;;;5.41;97.27;100171.06;4953776;29;20054;-50
2021/12/05 13:13:09;;;;;;;2.60;2.00;;;;;;;5.41;97.02;100176.47;4943339;28;20219;-51
2021/12/05 13:16:18;;;;;;;4.53;2.97;;;;;;;5.43;97.86;100174.31;4954179;28;20131;-53
2021/12/05 13:19:09;;;;;;;3.15;2.33;;;;;;;5.46;97.18;100171.13;4953671;28;20502;-47
2021/12/05 13:22:06;;;;;;;2.83;2.50;;;;;;;5.50;96.94;100177.63;4954720;29;20055;-49
2021/12/05 13:25:05;;;;;;;4.13;2.42;;;;;;;5.52;96.60;100180.09;4955148;28;20413;-48
2021/12/05 13:27:53;;;;;;;4.57;2.50;;;;;;;5.53;96.43;100187.97;4954452;29;20059;-46
2021/12/05 13:30:43;;;;;;;4.82;2.67;;;;;;;5.57;95.95;100190.16;4953924;28;20055;-48
2021/12/05 13:33:35;;;;;;;3.28;2.42;;;;;;;5.57;95.74;100187.47;4953922;28;20122;-50
2021/12/05 13:36:33;;;;;;;4.32;2.67;;;;;;;5.56;94.88;100197.47;4949785;28;20659;-50
2021/12/05 13:39:38;;;;;;;2.30;2.10;;;;;;;5.53;95.07;100193.38;4953868;28;20063;-48
2021/12/05 13:42:37;;;;;;;3.75;2.30;;;;;;;5.54;94.92;100202.28;4953804;28;20059;-52
2021/12/05 13:45:27;;;;;;;3.83;1.95;;;;;;;5.55;94.50;100212.81;4955439;28;20062;-49
2021/12/05 13:48:23;;;;;;;3.10;2.28;;;;;;;5.61;94.71;100213.72;4948755;29;20062;-47
2021/12/05 13:51:17;;;;;;;3.65;2.30;;;;;;;5.63;94.52;100218.88;4959556;28;20442;-45
2021/12/05 13:54:06;;;;;;;5.03;2.28;;;;;;;5.64;94.21;100215.94;4941333;29;20055;-50
2021/12/05 13:57:07;;;;;;;2.30;2.10;;;;;;;5.66;94.24;100223.81;4954006;28;20059;-50
2021/12/05 13:59:55;;;;;;;2.92;2.30;;;;;;;5.67;93.75;100225.41;4968198;28;20055;-49
2021/12/05 14:02:52;;;;;;;3.50;2.58;;;;;;;5.67;93.29;100236.22;4942455;29;20047;-48
2021/12/05 14:05:47;;;;;;;7.35;5.00;;;;;;;5.67;93.24;100241.63;4954159;29;20052;-48
2021/12/05 14:08:39;;;;;;;6.55;4.07;;;;;;;5.70;93.34;100241.97;4954486;29;20047;-49
2021/12/05 14:11:27;;;;;;;2.88;2.33;;;;;;;5.71;93.04;100242.78;4958484;28;20067;-51
2021/12/05 14:14:16;;;;;;;2.78;2.10;;;;;;;5.68;92.57;100248.69;4940819;29;20078;-49
2021/12/05 14:17:15;;;;;;;3.17;2.20;;;;;;;5.69;92.96;100258.44;4955370;28;20051;-49
2021/12/05 14:20:12;;;;;;;2.88;2.08;;;;;;;5.69;92.72;100261.94;4955794;28;20498;-48
2021/12/05 14:23:04;;;;;;;2.78;1.90;;;;;;;5.71;92.83;100262.50;4950077;29;20115;-47
2021/12/05 14:25:52;;;;;;;2.55;2.30;;;;;;;5.72;92.43;100271.44;4954513;28;20055;-48
2021/12/05 14:28:40;;;;;;;3.72;2.30;;;;;;;5.69;92.00;100272.75;4959003;28;20047;-52
2021/12/05 14:31:31;;;;;;;1.92;1.83;;;;;;;5.67;91.98;100285.69;4956255;28;20051;-48
2021/12/05 14:34:19;;;;;;;3.85;2.17;;;;;;;5.68;91.92;100287.34;4954221;28;20494;-49
2021/12/05 14:37:14;;;;;;;3.03;1.98;;;;;;;5.70;92.03;100295.19;4954652;28;20044;-48
2021/12/05 14:40:06;;;;;;;2.85;1.98;;;;;;;5.70;91.29;100297.88;4954836;28;20513;-48
2021/12/05 14:42:54;;;;;;;2.38;1.75;;;;;;;5.69;91.46;100304.38;4955716;28;20051;-49
2021/12/05 14:45:42;;;;;;;2.90;2.15;;;;;;;5.69;91.32;100307.06;4955101;28;20138;-49
2021/12/05 14:48:31;;;;;;;3.35;2.22;;;;;;;5.69;90.76;100309.78;4958800;28;20122;-50
2021/12/05 14:51:40;;;;;;;3.50;2.05;;;;;;;5.68;90.84;100325.19;4958408;28;20047;-49
2021/12/05 14:54:32;;;;;;;4.45;2.53;;;;;;;5.66;90.60;100334.59;4955588;28;20051;-49
2021/12/05 14:57:26;;;;;;;2.72;2.17;;;;;;;5.65;90.39;100336.50;4953575;28;20047;-49
2021/12/05 15:00:27;;;;;;;3.60;2.38;;;;;;;5.65;90.18;100351.88;4953506;28;20061;-49
2021/12/05 15:03:20;;;;;;;2.50;2.08;;;;;;;5.64;89.70;100356.47;4954599;28;20126;-49
2021/12/05 15:06:08;;;;;;;3.47;2.10;;;;;;;5.63;89.44;100362.09;4941474;29;20045;-48
2021/12/05 15:08:56;;;;;;;3.58;2.17;;;;;;;5.63;89.75;100370.22;4957645;28;20050;-47
2021/12/05 15:11:53;;;;;;;3.33;2.28;;;;;;;5.60;89.79;100370.72;4955000;28;20053;-47
2021/12/05 15:14:43;;;;;;;3.65;2.45;;;;;;;5.59;89.92;100371.78;4955740;28;20055;-49
2021/12/05 15:17:34;;;;;;;2.95;2.20;;;;;;;5.61;90.12;100375.88;4953426;29;20051;-52
2021/12/05 15:20:28;;;;;;;2.90;2.30;;;;;;;5.62;89.76;100374.00;4957978;28;20067;-48
2021/12/05 15:23:16;;;;;;;2.60;2.20;;;;;;;5.58;88.40;100389.06;4958824;28;20556;-49
2021/12/05 15:26:05;;;;;;;4.13;2.60;;;;;;;5.50;88.31;100398.38;4955663;28;20055;-50
2021/12/05 15:29:01;;;;;;;3.35;2.50;;;;;;;5.46;89.14;100397.22;4950566;29;20047;-50
2021/12/05 15:32:16;;;;;;;4.03;2.80;;;;;;;5.44;89.74;100405.59;4954498;28;20093;-50
2021/12/05 15:35:18;;;;;;;3.20;2.50;;;;;;;5.43;89.97;100417.44;4957424;28;20050;-49
2021/12/05 15:38:18;;;;;;;3.45;2.65;;;;;;;5.42;90.14;100418.53;4959790;28;20062;-50
2021/12/05 15:41:15;;;;;;;2.83;2.50;;;;;;;5.44;90.30;100431.81;4954203;29;20059;-52
2021/12/05 15:44:02;;;;;;;2.85;2.45;;;;;;;5.44;90.04;100435.31;4953775;29;20062;-46
2021/12/05 15:46:51;;;;;;;4.55;2.70;;;;;;;5.46;90.03;100429.66;4953599;28;20128;-49
2021/12/05 15:49:42;;;;;;;4.53;2.70;;;;;;;5.48;90.25;100433.78;4952427;29;20057;-50
2021/12/05 15:52:34;;;;;;;3.05;2.58;;;;;;;5.53;91.00;100444.69;4953836;28;20534;-49
2021/12/05 15:55:36;;;;;;;3.20;2.80;;;;;;;5.55;89.78;100449.81;4953758;28;20620;-51
2021/12/05 15:58:31;;;;;;;5.57;2.80;;;;;;;5.53;89.39;100451.94;4963943;28;20126;-49
2021/12/05 16:01:23;;;;;;;6.18;3.20;;;;;;;5.51;89.86;100454.91;4953802;28;20051;-52
2021/12/05 16:04:20;;;;;;;4.97;3.17;;;;;;;5.49;90.34;100457.03;4953191;28;20138;-53
2021/12/05 16:07:10;;;;;;;5.60;3.83;;;;;;;5.50;90.31;100458.66;4954331;28;20055;-52
2021/12/05 16:10:14;;;;;;;5.80;3.80;;;;;;;5.51;89.55;100465.72;4952517;28;20061;-51
2021/12/05 16:13:11;;;;;;;5.28;3.35;;;;;;;5.50;90.40;100463.25;4957514;28;20043;-49
2021/12/05 16:16:14;;;;;;;5.18;3.00;;;;;;;5.47;89.79;100475.34;4953496;29;20070;-49
2021/12/05 16:19:07;;;;;;;2.75;2.45;;;;;;;5.46;89.77;100483.69;4958209;28;20051;-47
2021/12/05 16:21:55;;;;;;;3.63;2.70;;;;;;;5.48;90.06;100493.22;4952837;29;20050;-48
2021/12/05 16:24:42;;;;;;;3.58;2.70;;;;;;;5.52;89.89;100491.66;4953388;28;20062;-46
2021/12/05 16:27:30;;;;;;;3.10;2.80;;;;;;;5.53;89.78;100496.00;4953390;28;20039;-50
2021/12/05 16:30:27;;;;;;;2.88;2.40;;;;;;;5.55;89.58;100499.28;4952640;28;20494;-48
2021/12/05 16:33:16;;;;;;;2.80;2.50;;;;;;;5.48;88.30;100508.59;4952909;28;20051;-49
2021/12/05 16:36:05;;;;;;;3.08;2.60;;;;;;;5.41;nan;100516.88;4953379;28;20063;-48
2021/12/05 16:38:53;;;;;;;4.90;2.90;;;;;;;5.37;89.15;100518.41;4958231;28;20066;-49
2021/12/05 16:41:51;;;;;;;6.75;4.18;;;;;;;5.34;89.38;100518.91;4953956;28;20059;-49
2021/12/05 16:44:41;;;;;;;5.75;3.60;;;;;;;5.32;90.21;100504.81;4953345;28;20058;-46
2021/12/05 16:47:31;;;;;;;6.53;4.25;;;;;;;5.34;90.84;100521.59;4953000;28;20062;-48
2021/12/05 16:50:21;;;;;;;8.82;5.05;;;;;;;5.36;90.92;100527.56;4949507;28;20582;-49
2021/12/05 16:53:11;;;;;;;8.80;5.30;;;;;;;5.38;91.17;100530.03;4952686;29;20074;-49
2021/12/05 16:56:00;;;;;;;9.95;5.72;;;;;;;5.38;91.52;100527.31;4952110;29;20445;-50
2021/12/05 16:58:48;;;;;;;9.02;5.68;;;;;;;5.37;91.35;100529.22;4953891;28;20482;-50
2021/12/05 17:01:35;;;;;;;9.68;5.70;;;;;;;5.36;91.66;100530.25;4951628;29;20047;-46
2021/12/05 17:05:06;;;;;;;7.82;5.30;;;;;;;5.34;92.24;100537.81;4953220;28;20130;-51
2021/12/05 17:08:07;;;;;;;8.60;5.45;;;;;;;5.32;92.96;100537.22;4952717;28;20417;-47
2021/12/05 17:10:57;;;;;;;8.32;5.30;;;;;;;5.33;93.05;100549.66;4954085;28;20422;-52
2021/12/05 17:13:51;;;;;;;8.15;4.90;;;;;;;5.33;94.12;100552.34;4951984;28;20525;-46
2021/12/05 17:16:41;;;;;;;8.93;4.90;;;;;;;5.27;94.48;100558.72;4952565;28;20055;-50
2021/12/05 17:19:30;;;;;;;9.90;5.30;;;;;;;5.22;95.14;100559.44;4953090;28;20055;-48
2021/12/05 17:22:21;;;;;;;10.07;5.20;;;;;;;5.23;96.49;100566.47;4598803;28;10000639;-46
2021/12/05 17:25:29;;;;;;;8.48;5.10;;;;;;;5.22;95.88;100575.66;4949227;28;20075;-45
2021/12/05 17:28:45;;;;;;;10.65;5.22;;;;;;;5.11;96.43;100580.00;4950853;28;20090;-47
2021/12/05 17:31:39;;;;;;;8.48;5.60;;;;;;;5.17;97.18;100589.06;4952864;28;20078;-46
2021/12/05 17:34:45;;;;;;;9.32;5.07;;;;;;;5.26;97.08;100597.59;4953710;28;20086;-46
2021/12/05 17:37:33;;;;;;;9.30;5.75;;;;;;;5.34;97.06;100599.94;4942774;29;20055;-50
2021/12/05 17:40:40;;;;;;;11.80;5.10;;;;;;;5.33;96.48;100609.91;4954032;29;20055;-49
2021/12/05 17:43:28;;;;;;;7.65;4.82;;;;;;;5.30;96.70;100617.66;4957240;28;20066;-51
2021/12/05 17:46:16;;;;;;;8.73;4.65;;;;;;;5.24;97.06;100618.63;4953523;28;20513;-48
2021/12/05 17:49:07;;;;;;;7.38;4.85;;;;;;;5.17;97.68;100636.81;4940660;29;20514;-50
2021/12/05 17:51:57;;;;;;;8.02;5.10;;;;;;;5.19;97.83;100645.50;4954692;28;20074;-49
2021/12/05 17:57:50;;;;;;;5.63;3.90;;;;;;;5.23;97.35;100650.22;4952917;29;20047;-48
2021/12/05 18:00:44;;;;;;;6.95;4.18;;;;;;;5.22;97.10;100658.53;4953806;29;20713;-49
2021/12/05 18:03:35;;;;;;;6.93;4.68;;;;;;;5.21;97.72;100662.31;4948494;28;20058;-45
2021/12/05 18:06:24;;;;;;;8.00;4.60;;;;;;;5.18;97.63;100657.38;4942908;28;20082;-47
2021/12/05 18:09:11;;;;;;;7.90;4.40;;;;;;;5.20;97.64;100663.38;4953790;28;20058;-46
2021/12/05 18:11:59;;;;;;;8.00;4.38;;;;;;;5.23;97.58;100668.31;4954193;28;20134;-45
2021/12/05 18:14:49;;;;;;;6.53;3.95;;;;;;;5.21;97.34;100676.63;4941758;29;20110;-44
2021/12/05 18:17:36;;;;;;;8.57;4.65;;;;;;;5.16;97.82;100673.00;4952173;28;20110;-48
2021/12/05 18:20:27;;;;;;;7.50;4.55;;;;;;;5.13;98.11;100677.81;4953364;28;20062;-49
2021/12/05 18:23:15;;;;;;;6.90;4.78;;;;;;;5.05;97.93;100680.03;4959368;28;20055;-47
2021/12/05 18:26:04;;;;;;;7.35;4.65;;;;;;;5.00;98.69;100686.13;4953650;29;20066;-49
2021/12/05 18:28:52;;;;;;;9.18;4.35;;;;;;;5.04;98.35;100687.31;4952064;29;20039;-49
2021/12/05 18:31:40;;;;;;;7.75;4.38;;;;;;;5.05;97.86;100699.78;4954058;28;20051;-47
2021/12/05 18:34:29;;;;;;;7.20;4.70;;;;;;;5.04;98.15;100698.13;4956312;28;20067;-48
2021/12/05 18:37:17;;;;;;;7.22;4.85;;;;;;;5.06;97.89;100700.59;4940702;29;20055;-47
2021/12/05 18:40:06;;;;;;;7.95;5.20;;;;;;;5.03;97.73;100691.09;4952600;29;20065;-48
2021/12/05 18:42:54;;;;;;;10.50;5.50;;;;;;;5.03;98.11;100701.06;4952678;28;20051;-47
2021/12/05 18:45:43;;;;;;;10.02;5.50;;;;;;;5.05;98.25;100704.34;4939993;29;20474;-48
2021/12/05 18:48:31;;;;;;;9.23;5.63;;;;;;;5.09;98.25;100710.91;4952465;29;20062;-49